Pagina principale
METAR-TAF:

METAR-TAF

Aeroporti :

Aeroporto di Târgu Mureș-Transilvania

Târgu Mureş, Romania

latitudine: 46-32N, longitudine: 024-32E, altezza: 308 m

Osservazione

Il bollettino è stato emesso 14 minuti fa, alle 22:00 UTC
Vento 4 kt da est/nord-est
Temperature 14°C
Umidità 94%
Pressione 1008 hPa
Visibilità 10 km o più
Poco nuvoloso ad un'altezza di 3600 ft
Poco nuvoloso ad un'altezza di 4200 ft, Cumulonembo.

METAR: LRTM 302200Z 07004KT 9999 FEW036 FEW042CB 14/13 Q1008

Ora: 01:14 (22:14 UTC)

Previsione

Il bollettino è stato emesso 2 ore e 14 minuti fa, alle 20:00 UTC
Previsione valida dal 30 alle 21 UTC al 31 alle 06 UTC
Vento 4 kt da direzioni variabili
Visibilità 10 km o più
Nubi sparse ad un'altezza di 5000 ft
Temporaneamente
dal 30 alle 22 UTC al 31 alle 04 UTC
Visibilità: 3000 m
foschia,

TAF: LRTM 302000Z 3021/3106 VRB04KT 9999 SCT050 TEMPO 3022/3104 3000 BR

Osservazioni e previsioni meteorologiche di più di 4000 aeroporti (messaggi METAR e TAF).

Le stazioni disponibili sono rappresentate dai dischi gialli e rossi sulla carta.

Puntare il mouse per vedere il nome della stazione.

Clicca sopra per visualizzare le osservazioni e previsioni meteorologiche.

Per cambiare la mappa : fare clic sui pulsanti verdi con una croce nera per ingrandire, il pulsante verde con un trattino per diminuire, o sulla freccia verde per le mappe adiacenti.


METAR-TAF: